Time,TemperatureF,DewpointF,PressureIn,WindDirection,WindDirectionDegrees,WindSpeedMPH,WindSpeedGustMPH,Humidity,HourlyPrecipIn,Conditions,Clouds,dailyrainin,SolarRadiationWatts/m^2,SoftwareType,DateUTC
2015-03-28 00:02:00,69.3,65.6,29.90,WSW,244,10.0,12.0,88,0.00,,OVC100,0.00,0.00,VWS V14.00,2015-03-28 04:02:00,
2015-03-28 00:07:00,69.4,65.7,29.89,SW,217,8.0,12.0,88,0.00,,OVC100,0.00,0.00,VWS V14.00,2015-03-28 04:07:00,
2015-03-28 00:12:00,69.3,65.6,29.89,SW,229,6.0,10.0,88,0.00,,OVC100,0.00,0.00,VWS V14.00,2015-03-28 04:12:00,
2015-03-28 00:17:00,69.4,65.7,29.90,SW,236,6.0,14.0,88,0.00,,OVC100,0.00,0.00,VWS V14.00,2015-03-28 04:17:00,
2015-03-28 00:22:00,69.4,65.7,29.90,SW,223,9.0,13.0,88,0.00,,OVC100,0.00,0.00,VWS V14.00,2015-03-28 04:22:00,
2015-03-28 00:27:00,69.5,65.8,29.90,SW,223,4.0,11.0,88,0.00,,OVC100,0.00,0.00,VWS V14.00,2015-03-28 04:27:00,
2015-03-28 00:32:00,69.5,65.8,29.91,WSW,238,4.0,6.0,88,0.00,,OVC100,0.00,0.00,VWS V14.00,2015-03-28 04:32:00,
2015-03-28 00:37:00,69.5,65.8,29.91,SW,217,8.0,14.0,88,0.00,,OVC100,0.00,0.00,VWS V14.00,2015-03-28 04:37:00,
2015-03-28 00:42:00,69.6,65.9,29.91,West,261,14.0,14.0,88,0.00,,OVC100,0.00,0.00,VWS V14.00,2015-03-28 04:42:00,
2015-03-28 00:47:00,69.5,65.8,29.90,WSW,252,4.0,10.0,88,0.00,,OVC100,0.00,0.00,VWS V14.00,2015-03-28 04:47:00,
2015-03-28 00:52:00,69.4,65.7,29.91,WSW,242,10.0,13.0,88,0.00,,OVC100,0.00,0.00,VWS V14.00,2015-03-28 04:52:00,
2015-03-28 00:57:00,69.3,65.6,29.92,SW,236,6.0,12.0,88,0.00,,OVC100,0.00,0.00,VWS V14.00,2015-03-28 04:57:00,
2015-03-28 01:02:00,69.2,65.8,29.93,West,278,5.0,13.0,89,0.00,,OVC100,0.00,0.00,VWS V14.00,2015-03-28 05:02:00,
2015-03-28 01:07:00,69.1,65.7,29.92,West,263,7.0,13.0,89,0.00,,OVC100,0.00,0.00,VWS V14.00,2015-03-28 05:07:00,
2015-03-28 01:12:00,69.0,65.6,29.92,WSW,239,5.0,5.0,89,0.00,,OVC100,0.00,0.00,VWS V14.00,2015-03-28 05:12:00,
2015-03-28 01:17:00,68.9,65.5,29.92,WSW,245,6.0,7.0,89,0.00,,OVC100,0.00,0.00,VWS V14.00,2015-03-28 05:17:00,
2015-03-28 01:22:00,68.9,65.5,29.92,WSW,253,3.0,6.0,89,0.00,,OVC100,0.00,0.00,VWS V14.00,2015-03-28 05:22:00,
2015-03-28 01:27:00,68.8,65.4,29.90,West,261,3.0,10.0,89,0.00,,OVC100,0.00,0.00,VWS V14.00,2015-03-28 05:27:00,
2015-03-28 01:32:00,68.7,65.3,29.92,West,281,2.0,9.0,89,0.00,,OVC100,0.00,0.00,VWS V14.00,2015-03-28 05:32:00,
2015-03-28 01:37:00,68.7,65.3,29.92,WNW,292,9.0,13.0,89,0.00,,OVC100,0.00,0.00,VWS V14.00,2015-03-28 05:37:00,
2015-03-28 01:42:00,68.6,64.9,29.93,WSW,254,6.0,7.0,88,0.00,,OVC100,0.00,0.00,VWS V14.00,2015-03-28 05:42:00,
2015-03-28 01:47:00,68.7,65.0,29.92,NW,322,6.0,10.0,88,0.00,,OVC100,0.00,0.00,VWS V14.00,2015-03-28 05:47:00,
2015-03-28 01:52:00,68.7,65.0,29.92,NW,311,7.0,12.0,88,0.00,,OVC100,0.00,0.00,VWS V14.00,2015-03-28 05:52:00,
2015-03-28 01:57:00,68.6,64.6,29.92,WNW,293,3.0,7.0,87,0.00,,OVC100,0.00,0.00,VWS V14.00,2015-03-28 05:57:00,
2015-03-28 02:02:00,68.5,64.5,29.92,West,272,4.0,9.0,87,0.00,,OVC100,0.00,0.00,VWS V14.00,2015-03-28 06:02:00,
2015-03-28 02:07:00,68.4,64.4,29.93,WSW,241,3.0,6.0,87,0.00,,OVC100,0.00,0.00,VWS V14.00,2015-03-28 06:07:00,
2015-03-28 02:12:00,68.3,64.3,29.93,WSW,258,3.0,7.0,87,0.00,,OVC100,0.00,0.00,VWS V14.00,2015-03-28 06:12:00,
2015-03-28 02:17:00,68.2,63.9,29.93,West,259,3.0,8.0,86,0.00,,OVC100,0.00,0.00,VWS V14.00,2015-03-28 06:17:00,
2015-03-28 02:22:00,68.0,63.7,29.94,NW,319,2.0,10.0,86,0.00,,OVC100,0.00,0.00,VWS V14.00,2015-03-28 06:22:00,
2015-03-28 02:27:00,67.9,63.2,29.93,West,274,4.0,7.0,85,0.00,,OVC100,0.00,0.00,VWS V14.00,2015-03-28 06:27:00,
2015-03-28 02:32:00,67.8,63.1,29.94,WNW,283,7.0,10.0,85,0.00,,OVC100,0.00,0.00,VWS V14.00,2015-03-28 06:32:00,
2015-03-28 02:38:00,67.7,63.0,29.95,NW,317,5.0,10.0,85,0.00,,OVC100,0.01,0.00,VWS V14.00,2015-03-28 06:38:00,
2015-03-28 02:43:00,67.6,62.6,29.95,NW,304,4.0,7.0,84,0.00,,OVC100,0.01,0.00,VWS V14.00,2015-03-28 06:43:00,
2015-03-28 02:48:00,67.4,62.1,29.95,NW,305,4.0,10.0,83,0.00,,OVC100,0.01,0.00,VWS V14.00,2015-03-28 06:48:00,
2015-03-28 02:53:00,67.4,62.4,29.95,NNW,328,4.0,4.0,84,0.00,,OVC100,0.01,0.00,VWS V14.00,2015-03-28 06:53:00,
2015-03-28 02:58:00,67.3,62.0,29.96,WNW,303,4.0,7.0,83,0.00,,OVC100,0.01,0.00,VWS V14.00,2015-03-28 06:58:00,
2015-03-28 03:03:00,67.3,62.3,29.96,WSW,243,4.0,13.0,84,0.00,,OVC100,0.01,0.00,VWS V14.00,2015-03-28 07:03:00,
2015-03-28 03:08:00,67.3,62.6,29.95,WNW,287,6.0,9.0,85,0.00,,OVC100,0.01,0.00,VWS V14.00,2015-03-28 07:08:00,
2015-03-28 03:13:00,67.3,62.6,29.95,NW,321,5.0,7.0,85,0.00,,OVC100,0.01,0.00,VWS V14.00,2015-03-28 07:13:00,
2015-03-28 03:18:00,67.0,62.0,29.95,NNW,329,10.0,11.0,84,0.00,,OVC100,0.01,0.00,VWS V14.00,2015-03-28 07:18:00,
2015-03-28 03:23:00,66.8,61.8,29.95,WNW,297,10.0,10.0,84,0.00,,OVC100,0.01,0.00,VWS V14.00,2015-03-28 07:23:00,
2015-03-28 03:28:00,66.6,60.6,29.95,West,279,10.0,10.0,81,0.00,,OVC100,0.01,0.00,VWS V14.00,2015-03-28 07:28:00,
2015-03-28 03:33:00,66.4,59.7,29.95,West,271,10.0,12.0,79,0.00,,OVC100,0.01,0.00,VWS V14.00,2015-03-28 07:33:00,
2015-03-28 03:38:00,66.4,59.7,29.95,WNW,288,5.0,7.0,79,0.00,,OVC100,0.01,0.00,VWS V14.00,2015-03-28 07:38:00,
2015-03-28 03:43:00,66.2,58.8,29.96,NNW,331,10.0,10.0,77,0.00,,OVC100,0.01,0.00,VWS V14.00,2015-03-28 07:43:00,
2015-03-28 03:48:00,66.1,58.7,29.95,NW,309,4.0,12.0,77,0.00,,OVC100,0.01,0.00,VWS V14.00,2015-03-28 07:48:00,
2015-03-28 03:53:00,65.9,58.5,29.95,WNW,302,7.0,7.0,77,0.00,,OVC100,0.01,0.00,VWS V14.00,2015-03-28 07:53:00,
2015-03-28 03:58:00,65.7,58.7,29.95,NNW,328,5.0,7.0,78,0.00,,OVC100,0.01,0.00,VWS V14.00,2015-03-28 07:58:00,
2015-03-28 04:03:00,65.5,58.8,29.95,NW,325,4.0,7.0,79,0.00,,OVC100,0.01,0.00,VWS V14.00,2015-03-28 08:03:00,
2015-03-28 04:08:00,65.4,59.1,29.96,NW,319,6.0,8.0,80,0.00,,OVC100,0.01,0.00,VWS V14.00,2015-03-28 08:08:00,
2015-03-28 04:13:00,65.2,59.2,29.95,WNW,296,5.0,6.0,81,0.00,,OVC100,0.01,0.00,VWS V14.00,2015-03-28 08:13:00,
2015-03-28 04:18:00,65.1,59.1,29.96,WNW,292,3.0,6.0,81,0.00,,OVC100,0.01,0.00,VWS V14.00,2015-03-28 08:18:00,
2015-03-28 04:23:00,65.0,59.0,29.96,NNW,331,4.0,5.0,81,0.00,,OVC100,0.01,0.00,VWS V14.00,2015-03-28 08:23:00,
2015-03-28 04:28:00,64.9,59.3,29.96,West,275,2.0,4.0,82,0.00,,OVC100,0.01,0.00,VWS V14.00,2015-03-28 08:28:00,
2015-03-28 04:33:00,64.8,58.8,29.97,NW,319,10.0,10.0,81,0.00,,OVC100,0.01,0.00,VWS V14.00,2015-03-28 08:33:00,
2015-03-28 04:38:00,64.8,58.8,29.96,NW,309,4.0,12.0,81,0.00,,OVC100,0.01,0.00,VWS V14.00,2015-03-28 08:38:00,
2015-03-28 04:43:00,64.7,58.7,29.96,WNW,300,6.0,9.0,81,0.00,,OVC100,0.01,0.00,VWS V14.00,2015-03-28 08:43:00,
2015-03-28 04:48:00,64.6,58.7,29.96,NW,326,5.0,7.0,81,0.00,,OVC100,0.01,0.00,VWS V14.00,2015-03-28 08:48:00,
2015-03-28 04:53:00,64.6,59.0,29.96,NNW,329,6.0,7.0,82,0.00,,OVC100,0.01,0.00,VWS V14.00,2015-03-28 08:53:00,
2015-03-28 04:58:00,64.4,58.1,29.97,NW,325,8.0,13.0,80,0.00,,OVC100,0.01,0.00,VWS V14.00,2015-03-28 08:58:00,
2015-03-28 05:03:00,64.3,57.7,29.96,NNW,327,10.0,14.0,79,0.00,,OVC100,0.01,0.00,VWS V14.00,2015-03-28 09:03:00,
2015-03-28 05:08:00,64.0,55.9,29.97,NW,322,12.0,13.0,75,0.00,,OVC100,0.01,0.00,VWS V14.00,2015-03-28 09:08:00,
2015-03-28 05:13:00,64.0,55.2,29.97,NW,318,6.0,12.0,73,0.00,,OVC100,0.01,0.00,VWS V14.00,2015-03-28 09:13:00,
2015-03-28 05:18:00,63.9,53.5,29.97,NNW,337,10.0,15.0,69,0.00,,OVC100,0.01,0.00,VWS V14.00,2015-03-28 09:18:00,
2015-03-28 05:23:00,63.7,53.3,29.97,NNW,342,12.0,14.0,69,0.00,,OVC100,0.01,0.00,VWS V14.00,2015-03-28 09:23:00,
2015-03-28 05:28:00,63.6,52.5,29.97,NW,311,10.0,12.0,67,0.00,,OVC100,0.01,0.00,VWS V14.00,2015-03-28 09:28:00,
2015-03-28 05:33:00,63.4,52.7,29.97,NW,325,9.0,11.0,68,0.00,,OVC100,0.01,0.00,VWS V14.00,2015-03-28 09:33:00,
2015-03-28 05:38:00,63.1,52.4,29.98,NW,313,9.0,12.0,68,0.00,,OVC100,0.01,0.00,VWS V14.00,2015-03-28 09:38:00,
2015-03-28 05:43:00,63.1,52.4,29.98,NW,317,2.0,10.0,68,0.00,,OVC100,0.01,0.00,VWS V14.00,2015-03-28 09:43:00,
2015-03-28 05:48:00,62.9,52.2,29.98,NW,325,9.0,11.0,68,0.00,,OVC100,0.01,0.00,VWS V14.00,2015-03-28 09:48:00,
2015-03-28 05:53:00,62.8,51.7,29.97,NW,306,10.0,12.0,67,0.00,,OVC100,0.01,0.00,VWS V14.00,2015-03-28 09:53:00,
2015-03-28 05:58:00,62.6,51.5,29.98,NW,315,3.0,10.0,67,0.00,,OVC100,0.01,0.00,VWS V14.00,2015-03-28 09:58:00,
2015-03-28 06:03:00,62.5,51.8,29.98,NNW,334,5.0,7.0,68,0.00,,OVC100,0.01,0.00,VWS V14.00,2015-03-28 10:03:00,
2015-03-28 06:08:00,62.4,51.3,29.98,NNW,340,10.0,10.0,67,0.00,,OVC100,0.01,0.00,VWS V14.00,2015-03-28 10:08:00,
2015-03-28 06:13:00,62.2,51.1,29.99,NNW,327,7.0,10.0,67,0.00,,OVC100,0.01,0.00,VWS V14.00,2015-03-28 10:13:00,
2015-03-28 06:18:00,62.1,51.0,29.99,WNW,303,5.0,12.0,67,0.00,,OVC100,0.01,0.00,VWS V14.00,2015-03-28 10:18:00,
2015-03-28 06:23:00,62.0,50.9,29.99,NW,310,6.0,7.0,67,0.00,,OVC100,0.01,0.00,VWS V14.00,2015-03-28 10:23:00,
2015-03-28 06:28:00,61.9,50.4,29.99,NNW,335,7.0,11.0,66,0.00,,OVC100,0.01,0.00,VWS V14.00,2015-03-28 10:28:00,
2015-03-28 06:34:00,61.8,50.7,29.99,NNW,337,4.0,5.0,67,0.00,,OVC100,0.01,0.00,VWS V14.00,2015-03-28 10:34:00,
2015-03-28 06:39:00,61.7,50.2,29.99,NW,308,5.0,9.0,66,0.00,,OVC100,0.01,0.00,VWS V14.00,2015-03-28 10:39:00,
2015-03-28 06:44:00,61.6,49.3,29.99,NNW,338,5.0,9.0,64,0.00,,OVC100,0.01,0.00,VWS V14.00,2015-03-28 10:44:00,
2015-03-28 06:49:00,61.6,49.3,30.00,North,5,3.0,10.0,64,0.00,,OVC100,0.01,0.00,VWS V14.00,2015-03-28 10:49:00,
2015-03-28 06:54:00,61.5,49.2,30.00,NNW,331,7.0,10.0,64,0.00,,OVC100,0.01,0.00,VWS V14.00,2015-03-28 10:54:00,
2015-03-28 06:59:00,61.4,49.1,30.01,WNW,300,4.0,10.0,64,0.00,,OVC100,0.01,0.00,VWS V14.00,2015-03-28 10:59:00,
2015-03-28 07:04:00,61.4,49.5,30.01,NNW,348,5.0,5.0,65,0.00,,OVC100,0.01,0.00,VWS V14.00,2015-03-28 11:04:00,
2015-03-28 07:09:00,61.3,49.5,30.01,NW,310,5.0,6.0,65,0.00,,OVC100,0.01,0.00,VWS V14.00,2015-03-28 11:09:00,
2015-03-28 07:14:00,61.3,49.5,30.01,NNW,329,4.0,7.0,65,0.00,,OVC100,0.01,0.00,VWS V14.00,2015-03-28 11:14:00,
2015-03-28 07:19:00,61.2,49.3,30.01,NNE,19,3.0,4.0,65,0.00,,OVC100,0.01,0.00,VWS V14.00,2015-03-28 11:19:00,
2015-03-28 07:24:00,61.2,49.3,30.02,NW,323,4.0,6.0,65,0.00,,OVC100,0.01,0.00,VWS V14.00,2015-03-28 11:24:00,
2015-03-28 07:29:00,61.2,49.3,30.02,NW,317,3.0,3.0,65,0.00,,OVC100,0.01,0.00,VWS V14.00,2015-03-28 11:29:00,
2015-03-28 07:34:00,61.2,49.3,30.02,NNW,328,3.0,5.0,65,0.00,,CLR,0.01,0.00,VWS V14.00,2015-03-28 11:34:00,
2015-03-28 07:39:00,61.1,49.7,30.02,NW,321,5.0,6.0,66,0.00,,CLR,0.01,0.00,VWS V14.00,2015-03-28 11:39:00,
2015-03-28 07:44:00,61.1,49.3,30.03,NNW,336,4.0,5.0,65,0.00,,CLR,0.01,0.00,VWS V14.00,2015-03-28 11:44:00,
2015-03-28 07:49:00,61.1,49.3,30.03,NW,326,3.0,5.0,65,0.00,,CLR,0.01,7.00,VWS V14.00,2015-03-28 11:49:00,
2015-03-28 07:54:00,61.1,49.7,30.03,NW,317,4.0,4.0,66,0.00,,CLR,0.01,11.00,VWS V14.00,2015-03-28 11:54:00,
2015-03-28 07:59:00,61.1,49.7,30.03,NE,43,3.0,4.0,66,0.00,,CLR,0.01,11.00,VWS V14.00,2015-03-28 11:59:00,
2015-03-28 08:04:00,61.1,49.3,30.04,NNW,327,5.0,7.0,65,0.00,,CLR,0.01,14.00,VWS V14.00,2015-03-28 12:04:00,
2015-03-28 08:09:00,61.1,48.4,30.04,North,355,6.0,6.0,63,0.00,,CLR,0.01,19.00,VWS V14.00,2015-03-28 12:09:00,
2015-03-28 08:14:00,61.1,48.0,30.04,NNW,336,5.0,9.0,62,0.00,,CLR,0.01,21.00,VWS V14.00,2015-03-28 12:14:00,
2015-03-28 08:19:00,61.1,47.6,30.05,NNW,344,6.0,11.0,61,0.00,,CLR,0.01,25.00,VWS V14.00,2015-03-28 12:19:00,
2015-03-28 08:24:00,61.1,47.6,30.05,NW,317,6.0,12.0,61,0.00,,CLR,0.01,23.00,VWS V14.00,2015-03-28 12:24:00,
2015-03-28 08:29:00,61.1,48.4,30.06,NW,306,5.0,5.0,63,0.00,,CLR,0.01,28.00,VWS V14.00,2015-03-28 12:29:00,
2015-03-28 08:34:00,61.1,48.4,30.06,North,5,4.0,6.0,63,0.00,,CLR,0.02,30.00,VWS V14.00,2015-03-28 12:34:00,
2015-03-28 08:39:00,61.1,48.4,30.06,North,355,7.0,9.0,63,0.00,,CLR,0.02,32.00,VWS V14.00,2015-03-28 12:39:00,
2015-03-28 08:44:00,61.0,47.0,30.06,North,350,6.0,9.0,60,0.00,,CLR,0.02,35.00,VWS V14.00,2015-03-28 12:44:00,
2015-03-28 08:49:00,60.9,46.9,30.06,WNW,290,8.0,11.0,60,0.00,,CLR,0.02,42.00,VWS V14.00,2015-03-28 12:49:00,
2015-03-28 08:54:00,61.0,46.1,30.06,North,5,9.0,13.0,58,0.00,,CLR,0.02,44.00,VWS V14.00,2015-03-28 12:54:00,
2015-03-28 08:59:00,61.0,45.2,30.07,NW,323,12.0,17.0,56,0.00,,CLR,0.02,47.00,VWS V14.00,2015-03-28 12:59:00,
2015-03-28 09:04:00,61.1,46.7,30.07,NNW,327,7.0,9.0,59,0.00,,CLR,0.02,46.00,VWS V14.00,2015-03-28 13:04:00,
2015-03-28 09:09:00,61.1,46.2,30.07,NNW,340,7.0,8.0,58,0.00,,CLR,0.02,47.00,VWS V14.00,2015-03-28 13:09:00,
2015-03-28 09:14:00,61.0,46.1,30.07,NNW,327,10.0,12.0,58,0.00,,CLR,0.02,47.00,VWS V14.00,2015-03-28 13:14:00,
2015-03-28 09:19:00,60.9,46.0,30.07,North,360,6.0,12.0,58,0.00,,CLR,0.02,53.00,VWS V14.00,2015-03-28 13:19:00,
2015-03-28 09:24:00,61.0,45.7,30.07,NNW,329,7.0,13.0,57,0.00,,CLR,0.02,65.00,VWS V14.00,2015-03-28 13:24:00,
2015-03-28 09:29:00,61.1,46.2,30.07,NNW,342,9.0,10.0,58,0.00,,CLR,0.02,63.00,VWS V14.00,2015-03-28 13:29:00,
2015-03-28 09:34:00,61.2,45.4,30.08,NNW,346,6.0,15.0,56,0.00,,CLR,0.02,69.00,VWS V14.00,2015-03-28 13:34:00,
2015-03-28 09:39:00,61.4,46.5,30.08,North,360,10.0,10.0,58,0.00,,CLR,0.02,65.00,VWS V14.00,2015-03-28 13:39:00,
2015-03-28 09:44:00,61.4,45.1,30.08,NNW,348,9.0,12.0,55,0.00,,CLR,0.02,81.00,VWS V14.00,2015-03-28 13:44:00,
2015-03-28 09:49:00,61.6,45.8,30.09,NNW,327,5.0,11.0,56,0.00,,CLR,0.02,83.00,VWS V14.00,2015-03-28 13:49:00,
2015-03-28 09:54:00,61.9,45.1,30.09,NNE,22,6.0,10.0,54,0.00,,CLR,0.02,83.00,VWS V14.00,2015-03-28 13:54:00,
2015-03-28 09:59:00,62.1,45.3,30.09,NNW,342,6.0,10.0,54,0.00,,CLR,0.02,77.00,VWS V14.00,2015-03-28 13:59:00,
2015-03-28 10:04:00,62.1,44.8,30.09,NW,315,7.0,12.0,53,0.00,,CLR,0.02,76.00,VWS V14.00,2015-03-28 14:04:00,
2015-03-28 10:09:00,62.0,44.7,30.09,NNW,333,8.0,11.0,53,0.00,,CLR,0.02,79.00,VWS V14.00,2015-03-28 14:09:00,
2015-03-28 10:14:00,62.1,46.2,30.09,NNW,331,10.0,10.0,56,0.00,,CLR,0.02,74.00,VWS V14.00,2015-03-28 14:14:00,
2015-03-28 10:19:00,62.1,45.3,30.09,NW,305,7.0,8.0,54,0.00,,CLR,0.02,72.00,VWS V14.00,2015-03-28 14:19:00,
2015-03-28 10:24:00,62.2,43.9,30.09,NNW,339,11.0,18.0,51,0.00,,CLR,0.02,81.00,VWS V14.00,2015-03-28 14:24:00,
2015-03-28 10:29:00,62.4,43.5,30.09,North,355,10.0,13.0,50,0.00,,CLR,0.02,121.00,VWS V14.00,2015-03-28 14:29:00,
2015-03-28 10:34:00,62.6,43.7,30.09,NNW,330,8.0,17.0,50,0.00,,CLR,0.02,88.00,VWS V14.00,2015-03-28 14:34:00,
2015-03-28 10:39:00,62.7,44.3,30.09,NW,304,9.0,10.0,51,0.00,,CLR,0.02,84.00,VWS V14.00,2015-03-28 14:39:00,
2015-03-28 10:44:00,62.8,43.9,30.10,NW,321,6.0,14.0,50,0.00,,CLR,0.02,132.00,VWS V14.00,2015-03-28 14:44:00,
2015-03-28 10:49:00,63.3,44.4,30.10,NNW,348,10.0,14.0,50,0.00,,CLR,0.02,141.00,VWS V14.00,2015-03-28 14:49:00,
2015-03-28 10:54:00,63.8,45.9,30.10,NNE,12,7.0,13.0,52,0.00,,CLR,0.02,144.00,VWS V14.00,2015-03-28 14:54:00,
2015-03-28 10:59:00,64.2,45.2,30.10,NW,325,11.0,12.0,50,0.00,,CLR,0.02,153.00,VWS V14.00,2015-03-28 14:59:00,
2015-03-28 11:04:00,64.4,45.4,30.09,NNW,340,7.0,11.0,50,0.00,,CLR,0.02,151.00,VWS V14.00,2015-03-28 15:04:00,
2015-03-28 11:09:00,64.8,46.8,30.09,NNW,348,9.0,12.0,52,0.00,,CLR,0.02,93.00,VWS V14.00,2015-03-28 15:09:00,
2015-03-28 11:14:00,64.6,46.1,30.10,NNW,341,11.0,14.0,51,0.00,,CLR,0.02,137.00,VWS V14.00,2015-03-28 15:14:00,